Time;durP1;ratioP1;P1;durP2;ratioP2;P2;SDS_P1;SDS_P2;PMS_P1;PMS_P2;Temp;Humidity;BMP_temperature;BMP_pressure;BME280_temperature;BME280_humidity;BME280_pressure;Samples;Min_cycle;Max_cycle;Signal;HPM_P1;HPM_P2
2022/11/28 00:01:19;;;;;;;9.43;5.28;;;10.70;99.90;;;;;;5019108;28;20562;-84
2022/11/28 00:03:46;;;;;;;12.00;5.22;;;10.70;99.90;;;;;;5011698;28;20053;-84
2022/11/28 00:06:14;;;;;;;7.97;4.93;;;10.70;99.90;;;;;;5012461;28;20045;-84
2022/11/28 00:08:41;;;;;;;8.20;4.97;;;10.70;99.90;;;;;;5009731;28;20068;-84
2022/11/28 00:11:11;;;;;;;9.18;4.80;;;10.60;99.90;;;;;;5028125;28;20081;-84
2022/11/28 00:13:38;;;;;;;9.07;5.00;;;10.60;99.90;;;;;;5010801;28;20056;-84
2022/11/28 00:16:07;;;;;;;10.40;5.50;;;10.60;99.90;;;;;;5007719;28;20049;-84
2022/11/28 00:18:34;;;;;;;12.77;5.53;;;10.60;99.90;;;;;;5011734;28;20524;-84
2022/11/28 00:21:02;;;;;;;11.05;5.40;;;10.60;99.90;;;;;;5019866;28;20069;-84
2022/11/28 00:23:32;;;;;;;9.82;4.90;;;10.60;99.90;;;;;;5011975;28;20684;-83
2022/11/28 00:25:59;;;;;;;10.55;4.90;;;10.60;99.90;;;;;;5011292;28;20046;-84
2022/11/28 00:28:26;;;;;;;10.10;4.35;;;10.60;99.90;;;;;;5013881;28;20038;-84
2022/11/28 00:30:53;;;;;;;7.68;4.70;;;10.60;99.90;;;;;;5019108;28;20088;-84
2022/11/28 00:33:20;;;;;;;10.70;5.05;;;10.60;99.90;;;;;;5015787;28;20223;-84
2022/11/28 00:35:47;;;;;;;7.05;4.55;;;10.70;99.90;;;;;;5019163;28;20049;-84
2022/11/28 00:38:14;;;;;;;11.02;5.35;;;10.60;99.90;;;;;;5021079;28;20522;-84
2022/11/28 00:40:42;;;;;;;8.48;4.60;;;10.70;99.90;;;;;;5025988;28;20164;-84
2022/11/28 00:43:10;;;;;;;8.52;5.00;;;10.70;99.90;;;;;;5014818;28;20044;-84
2022/11/28 00:45:37;;;;;;;10.35;5.43;;;10.60;99.90;;;;;;5007354;28;20041;-84
2022/11/28 00:48:04;;;;;;;9.98;5.22;;;10.70;99.90;;;;;;4998515;28;20515;-84
2022/11/28 00:50:31;;;;;;;8.73;4.88;;;10.70;99.90;;;;;;5023539;28;20116;-84
2022/11/28 00:52:58;;;;;;;9.82;5.00;;;10.70;99.90;;;;;;5012284;28;20048;-84
2022/11/28 00:55:26;;;;;;;8.82;4.75;;;10.70;99.90;;;;;;5011359;28;20585;-84
2022/11/28 00:57:54;;;;;;;8.65;4.88;;;10.70;99.90;;;;;;5012895;28;20120;-84
2022/11/28 01:00:22;;;;;;;8.05;4.72;;;10.70;99.90;;;;;;5004547;28;20051;-84
2022/11/28 01:02:49;;;;;;;9.55;4.95;;;10.70;99.90;;;;;;4993586;28;20608;-84
2022/11/28 01:05:16;;;;;;;11.27;5.40;;;10.70;99.90;;;;;;5022913;28;20046;-84
2022/11/28 01:07:43;;;;;;;9.98;5.10;;;10.70;99.90;;;;;;5010703;28;20089;-84
2022/11/28 01:10:11;;;;;;;9.05;5.28;;;10.70;99.90;;;;;;5018923;28;20050;-84
2022/11/28 01:12:39;;;;;;;8.52;4.93;;;10.70;99.90;;;;;;5009285;28;20133;-84
2022/11/28 01:15:10;;;;;;;10.43;5.18;;;10.70;99.90;;;;;;4973855;28;20148;-84
2022/11/28 01:17:37;;;;;;;9.70;5.32;;;10.70;99.90;;;;;;5006769;28;20129;-84
2022/11/28 01:20:08;;;;;;;9.18;5.10;;;10.70;99.90;;;;;;5014200;28;20091;-84
2022/11/28 01:22:35;;;;;;;9.15;5.30;;;10.70;99.90;;;;;;5027117;28;20116;-84
2022/11/28 01:25:02;;;;;;;9.75;5.55;;;10.70;99.90;;;;;;5009428;28;20045;-84
2022/11/28 01:27:29;;;;;;;9.82;5.30;;;10.70;99.90;;;;;;5009679;28;20125;-84
2022/11/28 01:29:56;;;;;;;9.73;5.20;;;10.70;99.90;;;;;;5021521;28;20045;-84
2022/11/28 01:32:24;;;;;;;9.57;5.22;;;10.70;99.90;;;;;;5029181;28;20124;-84
2022/11/28 01:34:51;;;;;;;9.30;4.88;;;10.70;99.90;;;;;;5010524;28;20080;-84
2022/11/28 01:37:18;;;;;;;9.85;4.68;;;10.70;99.90;;;;;;5013257;28;20045;-84
2022/11/28 01:39:45;;;;;;;10.07;4.72;;;10.70;99.90;;;;;;5024282;28;20077;-84
2022/11/28 01:42:16;;;;;;;11.30;5.05;;;10.70;99.90;;;;;;5030630;28;20509;-84
2022/11/28 01:45:20;;;;;;;9.50;4.80;;;10.70;99.90;;;;;;5010231;28;20116;-84
2022/11/28 01:47:49;;;;;;;9.57;4.70;;;10.70;99.90;;;;;;5024229;28;20049;-84
2022/11/28 01:50:16;;;;;;;7.53;4.30;;;10.70;99.90;;;;;;5021996;28;20072;-84
2022/11/28 01:52:45;;;;;;;7.45;4.65;;;10.70;99.90;;;;;;5016237;28;20038;-84
2022/11/28 01:55:13;;;;;;;10.25;5.05;;;10.70;99.90;;;;;;5014464;28;20068;-84
2022/11/28 01:57:40;;;;;;;7.65;4.60;;;10.70;99.90;;;;;;5008640;28;20049;-84
2022/11/28 02:00:09;;;;;;;8.82;5.07;;;10.70;99.90;;;;;;5012158;28;20034;-84
2022/11/28 02:02:42;;;;;;;10.05;5.35;;;10.80;99.90;;;;;;5010676;28;20061;-84
2022/11/28 02:05:10;;;;;;;8.48;5.03;;;10.70;99.90;;;;;;5009363;28;20798;-84
2022/11/28 02:07:38;;;;;;;8.50;5.07;;;10.70;99.90;;;;;;5009695;28;20076;-84
2022/11/28 02:10:07;;;;;;;10.90;5.32;;;10.70;99.90;;;;;;5000448;28;20045;-84
2022/11/28 02:12:59;;;;;;;8.02;4.60;;;10.70;99.90;;;;;;5021837;28;20048;-84
2022/11/28 02:15:34;;;;;;;8.43;4.88;;;10.70;99.90;;;;;;5002572;28;20125;-84
2022/11/28 02:18:09;;;;;;;7.82;5.05;;;10.70;99.90;;;;;;5011624;28;20744;-84
2022/11/28 02:21:06;;;;;;;10.38;5.25;;;10.70;99.90;;;;;;5013310;28;20052;-84
2022/11/28 02:23:53;;;;;;;9.93;5.40;;;10.80;99.90;;;;;;5005372;28;20409;-84
2022/11/28 02:27:17;;;;;;;7.97;4.78;;;10.80;99.90;;;;;;5014595;28;20544;-84
2022/11/28 02:30:20;;;;;;;8.65;5.22;;;10.80;99.90;;;;;;4909187;29;20115;-84
2022/11/28 02:33:00;;;;;;;9.05;5.32;;;10.70;99.90;;;;;;5007489;28;20046;-84
2022/11/28 02:35:33;;;;;;;8.43;5.23;;;10.70;99.90;;;;;;5015303;28;20124;-84
2022/11/28 02:38:08;;;;;;;9.70;5.00;;;10.70;99.90;;;;;;5016732;28;20466;-84
2022/11/28 02:40:38;;;;;;;10.23;4.80;;;10.70;99.90;;;;;;5009180;28;20093;-84
2022/11/28 02:43:09;;;;;;;11.35;5.68;;;10.70;99.90;;;;;;5003633;28;20092;-84
2022/11/28 02:45:39;;;;;;;10.77;5.57;;;10.70;99.90;;;;;;5013538;28;20044;-84
2022/11/28 02:48:10;;;;;;;8.93;5.22;;;10.70;99.90;;;;;;5009048;28;20119;-84
2022/11/28 02:50:41;;;;;;;8.07;4.72;;;10.80;99.90;;;;;;5009269;28;20055;-84
2022/11/28 02:53:12;;;;;;;9.07;5.50;;;10.70;99.90;;;;;;5008415;28;20038;-84
2022/11/28 02:55:40;;;;;;;7.80;5.20;;;10.70;99.90;;;;;;5008460;28;20045;-84
2022/11/28 02:58:07;;;;;;;10.48;5.18;;;10.70;99.90;;;;;;5001190;28;20064;-84
2022/11/28 03:00:36;;;;;;;10.35;5.05;;;10.70;99.90;;;;;;5012197;28;20053;-84
2022/11/28 03:03:26;;;;;;;9.65;4.97;;;10.70;99.90;;;;;;5014934;28;20096;-84
2022/11/28 03:05:58;;;;;;;8.13;4.90;;;10.70;99.90;;;;;;5008693;28;20046;-84
2022/11/28 03:08:37;;;;;;;9.18;5.18;;;10.70;99.90;;;;;;5009338;28;20049;-83
2022/11/28 03:11:08;;;;;;;9.98;5.30;;;10.70;99.90;;;;;;5007768;28;20417;-84
2022/11/28 03:13:39;;;;;;;10.63;5.53;;;10.70;99.90;;;;;;5014877;28;20073;-84
2022/11/28 03:16:13;;;;;;;12.55;5.18;;;10.70;99.90;;;;;;5017049;28;20463;-84
2022/11/28 03:18:46;;;;;;;9.63;5.53;;;10.70;99.90;;;;;;5007506;28;20425;-84
2022/11/28 03:21:16;;;;;;;8.95;5.13;;;10.70;99.90;;;;;;5008163;28;20121;-84
2022/11/28 03:23:46;;;;;;;9.13;5.32;;;10.60;99.90;;;;;;5013664;28;20061;-84
2022/11/28 03:26:19;;;;;;;9.48;5.35;;;10.70;99.90;;;;;;4993580;28;20147;-85
2022/11/28 03:28:49;;;;;;;11.48;5.65;;;10.70;99.90;;;;;;5007500;28;20050;-84
2022/11/28 03:31:19;;;;;;;9.13;5.03;;;10.70;99.90;;;;;;5006367;28;20119;-84
2022/11/28 03:33:51;;;;;;;8.60;5.20;;;10.70;99.90;;;;;;5018026;28;20054;-84
2022/11/28 03:36:21;;;;;;;10.73;5.38;;;10.70;99.90;;;;;;5008976;28;20053;-84
2022/11/28 03:38:53;;;;;;;9.27;5.53;;;10.70;99.90;;;;;;5008359;28;20521;-84
2022/11/28 03:41:23;;;;;;;9.95;5.47;;;10.70;99.90;;;;;;5001724;28;20052;-84
2022/11/28 03:43:53;;;;;;;9.85;4.90;;;10.70;99.90;;;;;;5002217;28;20056;-84
2022/11/28 03:46:22;;;;;;;9.50;5.28;;;10.60;99.90;;;;;;4996821;28;20588;-84
2022/11/28 03:48:52;;;;;;;8.50;4.78;;;10.60;99.90;;;;;;5016972;28;20422;-84
2022/11/28 03:51:21;;;;;;;8.80;5.00;;;10.70;99.90;;;;;;4989941;28;20058;-84
2022/11/28 03:53:51;;;;;;;8.55;4.95;;;10.60;99.90;;;;;;5021725;28;20355;-84
2022/11/28 03:56:23;;;;;;;9.00;4.88;;;10.60;99.90;;;;;;5009145;28;20124;-84
2022/11/28 03:58:54;;;;;;;8.85;5.18;;;10.60;99.90;;;;;;5005487;28;20421;-84
2022/11/28 04:01:27;;;;;;;9.80;5.15;;;10.60;99.90;;;;;;5011714;28;20104;-84
2022/11/28 04:04:01;;;;;;;9.25;4.75;;;10.60;99.90;;;;;;5025562;28;20428;-84
2022/11/28 04:06:32;;;;;;;9.52;5.13;;;10.60;99.90;;;;;;5014322;28;20069;-84
2022/11/28 04:09:04;;;;;;;9.40;4.55;;;10.60;99.90;;;;;;5008670;28;20081;-85
2022/11/28 04:11:35;;;;;;;10.25;5.28;;;10.60;99.90;;;;;;5004716;28;20501;-84
2022/11/28 04:14:05;;;;;;;8.52;4.90;;;10.60;99.90;;;;;;5012203;28;20112;-84
2022/11/28 04:16:34;;;;;;;9.75;5.13;;;10.60;99.90;;;;;;5028682;28;20498;-84
2022/11/28 04:19:07;;;;;;;8.93;5.03;;;10.60;99.90;;;;;;4987491;28;20111;-84
2022/11/28 04:21:38;;;;;;;10.10;5.68;;;10.80;99.90;;;;;;5014217;28;20053;-84
2022/11/28 04:24:09;;;;;;;8.45;5.20;;;10.60;99.90;;;;;;5014338;28;20197;-84
2022/11/28 04:26:38;;;;;;;9.52;5.68;;;10.60;99.90;;;;;;5022560;28;20584;-83
2022/11/28 04:29:07;;;;;;;10.48;5.32;;;10.60;99.90;;;;;;5009007;28;20041;-84
2022/11/28 04:31:35;;;;;;;10.48;5.55;;;10.60;99.90;;;;;;5008758;28;20045;-84
2022/11/28 04:34:07;;;;;;;8.48;4.88;;;10.60;99.90;;;;;;4995524;28;20045;-84
2022/11/28 04:36:34;;;;;;;;;;;10.50;99.90;;;;;;4995435;28;20479;-84
2022/11/28 04:39:02;;;;;;;11.70;5.82;;;10.60;99.90;;;;;;5011143;28;19926;-84
2022/11/28 04:41:34;;;;;;;10.73;5.32;;;10.50;99.90;;;;;;4992728;28;20459;-84
2022/11/28 04:44:05;;;;;;;9.65;5.15;;;10.60;99.90;;;;;;5008235;28;20567;-84
2022/11/28 04:46:36;;;;;;;9.68;5.40;;;10.50;99.90;;;;;;5011608;28;20130;-84
2022/11/28 04:49:05;;;;;;;8.73;5.35;;;10.50;99.90;;;;;;5011995;28;20171;-84
2022/11/28 04:51:36;;;;;;;9.32;5.40;;;10.50;99.90;;;;;;5015614;28;20041;-84
2022/11/28 04:54:06;;;;;;;8.35;4.80;;;10.50;99.90;;;;;;5023877;28;20077;-85
2022/11/28 04:56:38;;;;;;;12.57;5.47;;;10.50;99.90;;;;;;5015743;28;20073;-84
2022/11/28 04:59:06;;;;;;;8.80;5.07;;;10.50;99.90;;;;;;5011843;28;20474;-84
2022/11/28 05:01:34;;;;;;;8.93;5.10;;;10.50;99.90;;;;;;4992360;28;20045;-84
2022/11/28 05:04:01;;;;;;;8.30;5.03;;;10.50;99.90;;;;;;5022490;28;20489;-84
2022/11/28 05:06:31;;;;;;;9.73;5.53;;;10.50;99.90;;;;;;4993688;28;20157;-83
2022/11/28 05:08:58;;;;;;;9.88;5.32;;;10.50;99.90;;;;;;5011558;28;20128;-84
2022/11/28 05:11:25;;;;;;;7.85;4.60;;;10.50;99.90;;;;;;5016630;28;20804;-85
2022/11/28 05:13:52;;;;;;;8.10;5.18;;;10.50;99.90;;;;;;5018098;28;20561;-82
2022/11/28 05:16:19;;;;;;;7.63;4.60;;;10.50;99.90;;;;;;5012280;28;20283;-84
2022/11/28 05:18:46;;;;;;;8.52;5.00;;;10.50;99.90;;;;;;5004060;28;20045;-82
2022/11/28 05:21:13;;;;;;;10.15;5.10;;;10.50;99.90;;;;;;4999460;28;20414;-82
2022/11/28 05:23:43;;;;;;;9.27;5.32;;;10.50;99.90;;;;;;5011676;28;20042;-81
2022/11/28 05:26:13;;;;;;;8.52;4.60;;;10.50;99.90;;;;;;5019423;28;20596;-81
2022/11/28 05:28:42;;;;;;;8.55;5.18;;;10.50;99.90;;;;;;5025777;28;20091;-81
2022/11/28 05:31:09;;;;;;;8.73;5.20;;;10.50;99.90;;;;;;5010046;28;20120;-81
2022/11/28 05:33:36;;;;;;;8.57;5.25;;;10.50;99.90;;;;;;5010056;28;20042;-81
2022/11/28 05:36:04;;;;;;;8.35;5.15;;;10.60;99.90;;;;;;5007929;28;20042;-81
2022/11/28 05:38:32;;;;;;;9.60;5.45;;;10.50;99.90;;;;;;5001141;28;20128;-81
2022/11/28 05:41:00;;;;;;;9.15;5.20;;;10.50;99.90;;;;;;5012276;28;20136;-81
2022/11/28 05:43:28;;;;;;;10.80;5.20;;;10.50;99.90;;;;;;5010316;28;20046;-81
2022/11/28 05:45:55;;;;;;;7.95;5.10;;;10.50;99.90;;;;;;5011909;28;20046;-81
2022/11/28 05:48:23;;;;;;;10.48;5.30;;;10.50;99.90;;;;;;5022424;28;20555;-81
2022/11/28 05:50:50;;;;;;;10.20;5.80;;;10.50;99.90;;;;;;5018978;28;20056;-83
2022/11/28 05:53:18;;;;;;;8.80;5.13;;;10.50;99.90;;;;;;5004807;28;20042;-81
2022/11/28 05:55:46;;;;;;;10.88;6.05;;;10.50;99.90;;;;;;5006889;28;20042;-81
2022/11/28 05:58:15;;;;;;;12.40;5.90;;;10.50;99.90;;;;;;5015190;28;20070;-81
2022/11/28 06:00:42;;;;;;;10.90;6.07;;;10.50;99.90;;;;;;5010472;28;20045;-81
2022/11/28 06:03:09;;;;;;;11.20;6.63;;;10.50;99.90;;;;;;5009716;28;20033;-82
2022/11/28 06:05:39;;;;;;;9.85;5.53;;;10.50;99.90;;;;;;5008113;28;20049;-82
2022/11/28 06:08:06;;;;;;;10.18;5.75;;;10.50;99.90;;;;;;5018479;28;20126;-83
2022/11/28 06:10:33;;;;;;;9.82;5.95;;;10.50;99.90;;;;;;5008551;28;20046;-82
2022/11/28 06:13:01;;;;;;;10.40;5.75;;;10.50;99.90;;;;;;5018434;28;20042;-83
2022/11/28 06:15:30;;;;;;;9.23;5.40;;;10.50;99.90;;;;;;5009099;28;20079;-82
2022/11/28 06:17:57;;;;;;;8.80;5.47;;;10.50;99.90;;;;;;5004823;28;20080;-83
2022/11/28 06:20:24;;;;;;;11.77;6.03;;;10.50;99.90;;;;;;5015026;28;20535;-83
2022/11/28 06:22:51;;;;;;;10.35;5.85;;;10.50;99.90;;;;;;5009729;28;20081;-83
2022/11/28 06:25:21;;;;;;;11.70;5.68;;;10.50;99.90;;;;;;5008659;28;20060;-83
2022/11/28 06:27:48;;;;;;;10.20;6.15;;;10.50;99.90;;;;;;5024026;28;20075;-83
2022/11/28 06:30:15;;;;;;;10.50;5.53;;;10.50;99.90;;;;;;5016753;28;20053;-82
2022/11/28 06:32:43;;;;;;;8.82;5.70;;;10.50;99.90;;;;;;5010308;28;20041;-83
2022/11/28 06:35:11;;;;;;;10.82;5.82;;;10.40;99.90;;;;;;5009033;28;20058;-83
2022/11/28 06:37:38;;;;;;;9.25;5.55;;;10.40;99.90;;;;;;5011961;28;20037;-83
2022/11/28 06:40:06;;;;;;;13.70;6.18;;;10.40;99.90;;;;;;5009820;28;20663;-82
2022/11/28 06:42:34;;;;;;;8.85;5.80;;;10.40;99.90;;;;;;5009777;28;20060;-83
2022/11/28 06:45:01;;;;;;;10.32;5.93;;;10.40;99.90;;;;;;5009712;28;20417;-83
2022/11/28 06:47:28;;;;;;;12.35;6.25;;;10.40;99.90;;;;;;5011196;28;20042;-83
2022/11/28 06:49:57;;;;;;;10.00;6.10;;;10.40;99.90;;;;;;5007175;28;20049;-82
2022/11/28 06:52:24;;;;;;;9.27;5.95;;;10.40;99.90;;;;;;5023847;28;20123;-83
2022/11/28 06:54:51;;;;;;;10.10;6.25;;;10.40;99.90;;;;;;4990456;28;20053;-82
2022/11/28 06:57:18;;;;;;;11.85;7.65;;;10.40;99.90;;;;;;5009039;28;20073;-82
2022/11/28 06:59:45;;;;;;;12.20;7.65;;;10.40;99.90;;;;;;5016669;28;20050;-81
2022/11/28 07:02:12;;;;;;;11.15;7.65;;;10.40;99.90;;;;;;5014588;28;20069;-81
2022/11/28 07:04:39;;;;;;;13.40;7.72;;;10.40;99.90;;;;;;5028301;28;20052;-81
2022/11/28 07:07:08;;;;;;;17.70;12.15;;;10.40;99.90;;;;;;4998391;28;20559;-82
2022/11/28 07:09:35;;;;;;;13.70;8.60;;;10.40;99.90;;;;;;5009856;28;20057;-84
2022/11/28 07:12:02;;;;;;;14.75;7.93;;;10.40;99.90;;;;;;5008506;28;20044;-83
2022/11/28 07:14:33;;;;;;;15.68;7.13;;;10.40;99.90;;;;;;5009050;28;20490;-83
2022/11/28 07:17:00;;;;;;;13.20;7.43;;;10.40;99.90;;;;;;5009421;28;20054;-83
2022/11/28 07:19:27;;;;;;;11.57;6.90;;;10.40;99.90;;;;;;5008309;28;20499;-83
2022/11/28 07:21:55;;;;;;;12.55;7.10;;;10.40;99.90;;;;;;5006717;28;20124;-84
2022/11/28 07:24:23;;;;;;;11.32;7.00;;;10.40;99.90;;;;;;5008218;28;20042;-83
2022/11/28 07:26:50;;;;;;;10.95;6.97;;;10.40;99.90;;;;;;5011415;28;20041;-82
2022/11/28 07:31:57;;;;;;;11.68;7.53;;;10.40;99.90;;;;;;5003949;28;20406;-85
2022/11/28 07:34:25;;;;;;;14.35;7.50;;;10.40;99.90;;;;;;4992459;28;20050;-85
2022/11/28 07:36:52;;;;;;;13.10;7.15;;;10.40;99.90;;;;;;4990486;28;20052;-86
2022/11/28 07:39:22;;;;;;;11.05;6.85;;;10.40;99.90;;;;;;4994514;28;20053;-85
2022/11/28 07:41:50;;;;;;;12.68;6.82;;;10.40;99.90;;;;;;4985597;28;20038;-86
2022/11/28 07:44:18;;;;;;;12.90;6.97;;;10.40;99.90;;;;;;4989134;28;20045;-82
2022/11/28 07:46:45;;;;;;;12.45;6.95;;;10.40;99.90;;;;;;4980060;28;20042;-79
2022/11/28 07:49:14;;;;;;;14.82;7.85;;;10.40;99.90;;;;;;4978541;28;20162;-83
2022/11/28 07:51:41;;;;;;;12.32;7.53;;;10.40;99.90;;;;;;4977510;28;20042;-85
2022/11/28 07:54:09;;;;;;;12.65;6.75;;;10.40;99.90;;;;;;4963156;28;20050;-85
2022/11/28 07:56:38;;;;;;;11.18;7.18;;;10.30;99.90;;;;;;4980466;28;20054;-88
2022/11/28 07:59:07;;;;;;;12.20;7.45;;;10.40;99.90;;;;;;4979646;28;20047;-86
2022/11/28 08:01:35;;;;;;;17.63;6.85;;;10.40;99.90;;;;;;4962842;28;20078;-87
2022/11/28 08:04:04;;;;;;;12.32;7.35;;;10.40;99.90;;;;;;4988882;28;20048;-89
2022/11/28 08:06:31;;;;;;;10.55;6.70;;;10.50;99.90;;;;;;4973942;28;20042;-86
2022/11/28 08:09:02;;;;;;;12.25;6.90;;;10.50;99.90;;;;;;4955086;28;20043;-88
2022/11/28 08:11:31;;;;;;;10.25;6.78;;;10.50;99.90;;;;;;4971239;28;20536;-82
2022/11/28 08:13:58;;;;;;;15.15;7.35;;;10.50;99.90;;;;;;4973656;28;20114;-82
2022/11/28 08:16:28;;;;;;;12.10;6.72;;;10.50;99.90;;;;;;4971596;28;20053;-82
2022/11/28 08:18:55;;;;;;;9.65;6.90;;;10.50;99.90;;;;;;4979528;28;20043;-82
2022/11/28 08:21:24;;;;;;;10.13;6.60;;;10.50;99.90;;;;;;4974430;28;20070;-82
2022/11/28 08:23:51;;;;;;;11.40;7.03;;;10.50;99.90;;;;;;4955114;28;20065;-79
2022/11/28 08:26:20;;;;;;;11.63;7.10;;;10.50;99.90;;;;;;4972120;28;20050;-82
2022/11/28 08:28:49;;;;;;;12.60;7.15;;;10.50;99.90;;;;;;4977008;28;20054;-82
2022/11/28 08:31:18;;;;;;;12.93;6.65;;;10.50;99.90;;;;;;4981100;28;20585;-80
2022/11/28 08:33:47;;;;;;;13.48;7.35;;;10.50;99.90;;;;;;4979073;28;20046;-80
2022/11/28 08:36:19;;;;;;;11.88;6.50;;;10.60;99.90;;;;;;4977574;28;20097;-82
2022/11/28 08:38:46;;;;;;;11.65;6.72;;;10.50;99.90;;;;;;4979614;28;20127;-84
2022/11/28 08:41:15;;;;;;;12.05;6.60;;;10.50;99.90;;;;;;4983594;28;20039;-82
2022/11/28 08:43:42;;;;;;;13.48;7.40;;;10.60;99.90;;;;;;4965697;28;20144;-81
2022/11/28 08:46:14;;;;;;;12.77;7.97;;;10.60;99.90;;;;;;4974561;28;20130;-82
2022/11/28 08:48:41;;;;;;;13.00;7.00;;;10.60;99.90;;;;;;4977189;28;20039;-82
2022/11/28 08:51:13;;;;;;;12.10;6.60;;;10.60;99.90;;;;;;4987557;28;20049;-82
2022/11/28 08:53:40;;;;;;;11.82;6.50;;;10.60;99.90;;;;;;4955082;28;20454;-82
2022/11/28 08:56:07;;;;;;;11.30;6.55;;;10.60;99.90;;;;;;4989820;28;20042;-81
2022/11/28 08:58:34;;;;;;;11.65;6.68;;;10.60;99.90;;;;;;4979592;28;20567;-81
2022/11/28 09:01:01;;;;;;;10.38;6.88;;;10.60;99.90;;;;;;4979221;28;20122;-81
2022/11/28 09:03:29;;;;;;;9.88;6.43;;;10.60;99.90;;;;;;4981959;28;20125;-81
2022/11/28 09:06:00;;;;;;;10.98;6.45;;;10.60;99.90;;;;;;4978035;28;20411;-82
2022/11/28 09:08:28;;;;;;;10.20;5.78;;;10.60;99.90;;;;;;4979058;28;20042;-81
2022/11/28 09:10:55;;;;;;;11.25;7.00;;;10.60;99.90;;;;;;4983967;28;20423;-82
2022/11/28 09:13:22;;;;;;;11.30;6.38;;;10.60;99.90;;;;;;4979149;28;20499;-81
2022/11/28 09:15:50;;;;;;;14.05;6.72;;;10.60;99.90;;;;;;4978223;28;20831;-82
2022/11/28 09:18:17;;;;;;;9.30;6.15;;;10.60;99.90;;;;;;4968926;28;20043;-81
2022/11/28 09:20:45;;;;;;;10.27;6.60;;;10.70;99.90;;;;;;4978151;28;20074;-82
2022/11/28 09:23:12;;;;;;;13.27;6.68;;;10.70;99.90;;;;;;4972782;28;20573;-82
2022/11/28 09:25:40;;;;;;;13.30;6.93;;;10.70;99.90;;;;;;4980143;28;20054;-81
2022/11/28 09:28:07;;;;;;;12.95;6.03;;;10.70;99.90;;;;;;4972227;28;20050;-81
2022/11/28 09:30:35;;;;;;;14.68;6.38;;;10.70;99.90;;;;;;4976174;28;20062;-80
2022/11/28 09:33:02;;;;;;;11.57;6.40;;;10.70;99.90;;;;;;4981526;28;20050;-80
2022/11/28 09:35:28;;;;;;;11.98;7.18;;;10.70;99.90;;;;;;4967590;28;20039;-81
2022/11/28 09:37:57;;;;;;;12.68;6.65;;;10.70;99.90;;;;;;4978390;28;20046;-81
2022/11/28 09:43:25;;;;;;;10.05;6.13;;;10.70;99.90;;;;;;4973112;28;20051;-81
2022/11/28 09:45:53;;;;;;;13.05;6.75;;;10.80;99.90;;;;;;4958600;28;20047;-81
2022/11/28 09:48:26;;;;;;;10.52;6.85;;;10.80;99.90;;;;;;4966890;28;20050;-81
2022/11/28 09:50:57;;;;;;;12.77;7.47;;;10.80;99.90;;;;;;4978615;28;20106;-81
2022/11/28 09:53:28;;;;;;;14.52;6.32;;;10.80;99.90;;;;;;4982741;28;20039;-81
2022/11/28 09:55:59;;;;;;;13.05;7.05;;;10.80;99.90;;;;;;4972217;28;20135;-81
2022/11/28 09:58:33;;;;;;;14.43;7.28;;;10.80;99.90;;;;;;4982350;28;20053;-82
2022/11/28 10:01:14;;;;;;;10.93;6.50;;;10.80;99.90;;;;;;4980161;28;20051;-81
2022/11/28 10:03:45;;;;;;;11.52;6.80;;;10.80;99.90;;;;;;4967343;28;20054;-81
2022/11/28 10:06:18;;;;;;;11.48;6.68;;;10.80;99.90;;;;;;4978236;28;20069;-81
2022/11/28 10:08:56;;;;;;;12.90;7.00;;;10.80;99.90;;;;;;4979419;28;20097;-82
2022/11/28 10:11:31;;;;;;;12.38;7.13;;;10.80;99.90;;;;;;4980502;28;20104;-81
2022/11/28 10:14:05;;;;;;;13.88;7.32;;;10.80;99.90;;;;;;4972456;28;20065;-81
2022/11/28 10:16:42;;;;;;;13.05;7.72;;;10.80;99.90;;;;;;4982310;28;20053;-81
2022/11/28 10:19:12;;;;;;;12.65;6.82;;;10.90;99.90;;;;;;4977101;28;20042;-81
2022/11/28 10:21:42;;;;;;;12.70;7.07;;;10.90;99.90;;;;;;4982429;28;20092;-81
2022/11/28 10:24:14;;;;;;;11.55;7.28;;;10.90;99.90;;;;;;4980444;28;20159;-81
2022/11/28 10:26:43;;;;;;;15.05;7.55;;;10.90;99.90;;;;;;4948232;28;20474;-81
2022/11/28 10:29:26;;;;;;;15.70;8.02;;;10.90;99.90;;;;;;4974820;28;20481;-82
2022/11/28 10:31:55;;;;;;;15.00;7.60;;;11.00;99.90;;;;;;4969726;28;20054;-81
2022/11/28 10:34:30;;;;;;;12.63;7.63;;;10.90;99.90;;;;;;4968149;28;20110;-82
2022/11/28 10:37:01;;;;;;;16.20;8.63;;;10.90;99.90;;;;;;4982176;28;20054;-81
2022/11/28 10:39:28;;;;;;;14.98;7.82;;;10.90;99.90;;;;;;4977359;28;20121;-81
2022/11/28 10:42:13;;;;;;;12.00;7.75;;;10.90;99.90;;;;;;4972174;28;20069;-81
2022/11/28 10:44:58;;;;;;;15.77;8.23;;;10.90;99.90;;;;;;4982268;28;20092;-81
2022/11/28 10:47:39;;;;;;;16.10;7.78;;;10.90;99.90;;;;;;4971602;28;20050;-81
2022/11/28 10:50:14;;;;;;;14.68;7.82;;;11.00;99.90;;;;;;4975852;28;20054;-81
2022/11/28 10:52:45;;;;;;;13.10;7.75;;;11.00;99.90;;;;;;4966373;28;20523;-81
2022/11/28 10:55:24;;;;;;;13.90;7.78;;;11.00;99.90;;;;;;4973633;28;20045;-84
2022/11/28 10:58:04;;;;;;;15.80;7.97;;;11.00;99.90;;;;;;4985848;28;20518;-82
2022/11/28 11:01:01;;;;;;;13.40;7.70;;;11.20;99.90;;;;;;4965393;28;20047;-80
2022/11/28 11:03:38;;;;;;;16.60;8.38;;;11.00;99.90;;;;;;4974519;28;20065;-79
2022/11/28 11:06:06;;;;;;;12.38;7.53;;;11.00;99.90;;;;;;4977353;28;20039;-81
2022/11/28 11:08:36;;;;;;;15.18;7.78;;;11.00;99.90;;;;;;4984768;28;20490;-80
2022/11/28 11:11:05;;;;;;;14.07;8.02;;;11.10;99.90;;;;;;4964939;28;20147;-85
2022/11/28 11:13:33;;;;;;;14.88;8.10;;;11.00;99.90;;;;;;4977840;28;20490;-81
2022/11/28 11:16:04;;;;;;;12.98;8.23;;;11.00;99.90;;;;;;4984202;28;20462;-83
2022/11/28 11:18:33;;;;;;;14.85;7.88;;;11.10;99.90;;;;;;4968321;28;20717;-83
2022/11/28 11:21:15;;;;;;;12.90;7.22;;;11.10;99.90;;;;;;4980946;28;20077;-84
2022/11/28 11:23:42;;;;;;;13.95;8.15;;;11.00;99.90;;;;;;4969944;28;20058;-83
2022/11/28 11:26:20;;;;;;;12.43;7.55;;;11.10;99.90;;;;;;4961810;28;20066;-83
2022/11/28 11:28:49;;;;;;;16.75;8.57;;;11.10;99.90;;;;;;4961808;28;20075;-84
2022/11/28 11:31:21;;;;;;;16.13;8.20;;;11.10;99.90;;;;;;4959491;28;20061;-83
2022/11/28 11:33:51;;;;;;;12.60;8.38;;;11.10;99.90;;;;;;4957310;28;20054;-84
2022/11/28 11:36:25;;;;;;;12.40;8.07;;;11.10;99.90;;;;;;4958673;28;20090;-83
2022/11/28 11:38:52;;;;;;;17.67;8.63;;;11.10;99.90;;;;;;4961693;28;20145;-83
2022/11/28 11:41:27;;;;;;;15.75;8.57;;;11.10;99.90;;;;;;4963715;28;20047;-83
2022/11/28 11:43:56;;;;;;;14.52;8.52;;;11.10;99.90;;;;;;4960427;28;21295;-83
2022/11/28 11:46:24;;;;;;;14.93;8.48;;;11.10;99.90;;;;;;4970563;28;20038;-83
2022/11/28 11:48:52;;;;;;;13.00;7.78;;;11.30;99.90;;;;;;4976992;28;20047;-83
2022/11/28 11:51:25;;;;;;;15.00;8.18;;;11.10;99.90;;;;;;4980539;28;20074;-83
2022/11/28 11:54:02;;;;;;;15.02;8.25;;;11.10;99.90;;;;;;4987056;28;20046;-83
2022/11/28 11:56:32;;;;;;;14.23;9.23;;;11.10;99.90;;;;;;4973342;28;20125;-82
2022/11/28 11:59:01;;;;;;;16.27;8.43;;;11.10;99.90;;;;;;4979624;28;20057;-82
2022/11/28 12:01:31;;;;;;;13.77;8.40;;;11.10;99.90;;;;;;4973711;28;20039;-82
2022/11/28 12:04:00;;;;;;;15.65;8.63;;;11.10;99.90;;;;;;4970077;28;20146;-82
2022/11/28 12:06:29;;;;;;;15.52;8.18;;;11.10;99.90;;;;;;4975976;28;20925;-81
2022/11/28 12:09:03;;;;;;;13.18;8.52;;;11.10;99.90;;;;;;4967167;28;20047;-82
2022/11/28 12:11:34;;;;;;;17.10;8.93;;;11.20;99.90;;;;;;4985583;28;20616;-82
2022/11/28 12:14:24;;;;;;;13.43;8.25;;;11.10;99.90;;;;;;4980739;28;20093;-82
2022/11/28 12:17:00;;;;;;;13.88;8.40;;;11.10;99.90;;;;;;4985315;28;20120;-82
2022/11/28 12:19:32;;;;;;;17.13;8.80;;;11.10;99.90;;;;;;4974657;28;20609;-82
2022/11/28 12:22:07;;;;;;;13.50;8.25;;;11.10;99.90;;;;;;4973291;28;20138;-81
2022/11/28 12:24:40;;;;;;;15.10;8.75;;;11.10;99.90;;;;;;4976038;28;20042;-80
2022/11/28 12:27:14;;;;;;;14.75;8.98;;;11.10;99.90;;;;;;4975532;28;20042;-81
2022/11/28 12:29:48;;;;;;;12.10;8.40;;;11.10;99.90;;;;;;4972732;28;20049;-79
2022/11/28 12:32:28;;;;;;;14.30;8.65;;;11.10;99.90;;;;;;4969973;28;20065;-81
2022/11/28 12:35:06;;;;;;;13.48;9.65;;;11.10;99.90;;;;;;4986137;28;20050;-81
2022/11/28 12:37:40;;;;;;;16.08;9.25;;;11.10;99.90;;;;;;4987693;28;20053;-81
2022/11/28 12:40:14;;;;;;;16.30;9.13;;;11.10;99.90;;;;;;4979656;28;20046;-81
2022/11/28 12:42:54;;;;;;;16.92;9.40;;;11.10;99.90;;;;;;4976901;28;20053;-81
2022/11/28 12:45:44;;;;;;;14.38;9.35;;;11.10;99.90;;;;;;4985988;28;20063;-81
2022/11/28 12:48:23;;;;;;;15.73;9.27;;;11.10;99.90;;;;;;4977827;28;20042;-81
2022/11/28 12:50:57;;;;;;;15.50;8.98;;;11.10;99.90;;;;;;4979819;28;20137;-81
2022/11/28 12:53:40;;;;;;;17.05;9.35;;;11.10;99.90;;;;;;4965552;28;20054;-81
2022/11/28 12:56:15;;;;;;;14.63;9.55;;;11.10;99.90;;;;;;4969363;28;20180;-81
2022/11/28 12:58:46;;;;;;;13.98;9.00;;;11.10;99.90;;;;;;4981387;28;20129;-81
2022/11/28 13:01:26;;;;;;;15.90;9.57;;;11.10;99.90;;;;;;4983702;28;20042;-81
2022/11/28 13:04:04;;;;;;;14.55;8.70;;;11.10;99.90;;;;;;4975078;28;20051;-81